Terminal Aerodrome Forecast
Issued by NWS

Home | Current Version | Previous Version | Graphics & Text | Print | Product List | Glossary On
Versions: 1 2 3 4 5 6 7 8 9 10 11 12 13
000
FTUS45 KGGW 232330
TAFSDY
TAF
KSDY 232330Z 2400/2424 15007KT P6SM FEW250
     FM240700 16009KT P6SM FEW250 WS020/17040KT
     FM241800 29013KT P6SM FEW150
     FM242100 33014KT P6SM FEW160=

USA.gov is the U.S. government's official web portal to all federal, state and local government web resources and services.